sensor_id;sensor_type;location;lat;lon;timestamp;pressure;altitude;pressure_sealevel;temperature;humidity
68656;BME280;55638;51.122;13.606;2024-02-15T08:28:26;100489.19;;;9.06;80.55
68656;BME280;55638;51.122;13.606;2024-02-15T08:30:00;100492.56;;;9.33;79.79
68656;BME280;55638;51.122;13.606;2024-02-15T08:31:32;100488.06;;;9.58;78.76
68656;BME280;55638;51.122;13.606;2024-02-15T08:33:05;100491.63;;;9.82;78.13
68656;BME280;55638;51.122;13.606;2024-02-15T08:34:40;100489.03;;;10.05;77.38
68656;BME280;55638;51.122;13.606;2024-02-15T08:36:12;100500.81;;;10.26;76.63
68656;BME280;55638;51.122;13.606;2024-02-15T08:37:47;100498.41;;;10.46;75.92
68656;BME280;55638;51.122;13.606;2024-02-15T08:44:01;100507.06;;;10.96;73.88
68656;BME280;55638;51.122;13.606;2024-02-15T08:45:34;100503.50;;;11.06;73.26
68656;BME280;55638;51.122;13.606;2024-02-15T08:47:07;100508.03;;;11.17;72.89
68656;BME280;55638;51.122;13.606;2024-02-15T08:54:44;100504.75;;;11.57;72.62
68656;BME280;55638;51.122;13.606;2024-02-15T08:56:16;100502.13;;;11.67;72.38
68656;BME280;55638;51.122;13.606;2024-02-15T08:57:48;100511.34;;;11.75;72.48
68656;BME280;55638;51.122;13.606;2024-02-15T08:59:20;100498.09;;;11.84;71.93
68656;BME280;55638;51.122;13.606;2024-02-15T09:00:52;100506.13;;;11.95;71.69
68656;BME280;55638;51.122;13.606;2024-02-15T09:02:26;100505.09;;;12.07;71.61
68656;BME280;55638;51.122;13.606;2024-02-15T09:03:58;100499.75;;;12.17;71.26
68656;BME280;55638;51.122;13.606;2024-02-15T09:05:30;100495.28;;;12.27;71.04
68656;BME280;55638;51.122;13.606;2024-02-15T09:07:02;100500.75;;;12.37;70.45
68656;BME280;55638;51.122;13.606;2024-02-15T09:08:36;100498.22;;;12.45;70.44
68656;BME280;55638;51.122;13.606;2024-02-15T09:10:11;100507.53;;;12.52;69.67
68656;BME280;55638;51.122;13.606;2024-02-15T09:11:43;100497.91;;;12.59;70.05
68656;BME280;55638;51.122;13.606;2024-02-15T09:13:16;100502.63;;;12.67;69.41
68656;BME280;55638;51.122;13.606;2024-02-15T09:16:35;100499.00;;;12.78;68.51
68656;BME280;55638;51.122;13.606;2024-02-15T09:18:08;100495.75;;;12.84;69.02
68656;BME280;55638;51.122;13.606;2024-02-15T09:19:41;100495.22;;;12.90;68.73
68656;BME280;55638;51.122;13.606;2024-02-15T09:21:13;100493.69;;;12.97;68.79
68656;BME280;55638;51.122;13.606;2024-02-15T09:22:52;100489.72;;;13.01;68.09
68656;BME280;55638;51.122;13.606;2024-02-15T09:24:26;100494.44;;;13.09;69.20
68656;BME280;55638;51.122;13.606;2024-02-15T09:25:58;100492.91;;;13.16;69.39
68656;BME280;55638;51.122;13.606;2024-02-15T09:27:30;100498.63;;;13.22;69.26
68656;BME280;55638;51.122;13.606;2024-02-15T09:29:02;100497.50;;;13.35;69.59
68656;BME280;55638;51.122;13.606;2024-02-15T09:30:38;100489.69;;;13.41;68.51
68656;BME280;55638;51.122;13.606;2024-02-15T09:32:10;100493.41;;;13.50;68.15
68656;BME280;55638;51.122;13.606;2024-02-15T09:33:42;100491.69;;;13.59;68.16
68656;BME280;55638;51.122;13.606;2024-02-15T09:35:14;100492.03;;;13.65;67.70
68656;BME280;55638;51.122;13.606;2024-02-15T09:36:46;100489.47;;;13.74;67.62
68656;BME280;55638;51.122;13.606;2024-02-15T09:38:18;100492.47;;;13.80;67.64
68656;BME280;55638;51.122;13.606;2024-02-15T09:39:51;100494.47;;;13.88;67.28
68656;BME280;55638;51.122;13.606;2024-02-15T09:41:23;100495.63;;;13.95;67.04
68656;BME280;55638;51.122;13.606;2024-02-15T09:42:55;100496.78;;;14.02;66.87
68656;BME280;55638;51.122;13.606;2024-02-15T09:44:27;100502.47;;;14.09;66.75
68656;BME280;55638;51.122;13.606;2024-02-15T09:45:59;100499.19;;;14.15;66.07
68656;BME280;55638;51.122;13.606;2024-02-15T09:47:35;100502.19;;;14.22;65.48
68656;BME280;55638;51.122;13.606;2024-02-15T09:49:13;100504.59;;;14.25;65.07
68656;BME280;55638;51.122;13.606;2024-02-15T09:50:45;100502.59;;;14.27;64.70
68656;BME280;55638;51.122;13.606;2024-02-15T09:52:19;100506.88;;;14.29;64.36
68656;BME280;55638;51.122;13.606;2024-02-15T09:53:51;100512.16;;;14.31;64.27
68656;BME280;55638;51.122;13.606;2024-02-15T09:55:24;100508.72;;;14.29;63.60
68656;BME280;55638;51.122;13.606;2024-02-15T10:40:05;100507.16;;;12.36;67.68
68656;BME280;55638;51.122;13.606;2024-02-15T10:41:40;100498.28;;;12.55;67.20
68656;BME280;55638;51.122;13.606;2024-02-15T10:43:15;100498.53;;;12.72;66.80
68656;BME280;55638;51.122;13.606;2024-02-15T10:44:51;100496.97;;;12.91;65.75
68656;BME280;55638;51.122;13.606;2024-02-15T10:46:24;100497.44;;;13.06;65.90
68656;BME280;55638;51.122;13.606;2024-02-15T10:47:56;100497.06;;;13.20;65.46
68656;BME280;55638;51.122;13.606;2024-02-15T10:49:29;100492.38;;;13.32;65.32
68656;BME280;55638;51.122;13.606;2024-02-15T10:51:03;100495.84;;;13.43;64.93
68656;BME280;55638;51.122;13.606;2024-02-15T10:52:58;100485.88;;;13.54;63.73
68656;BME280;55638;51.122;13.606;2024-02-15T10:54:46;100492.16;;;13.64;64.48
68656;BME280;55638;51.122;13.606;2024-02-15T10:56:22;100487.78;;;13.73;63.66
68656;BME280;55638;51.122;13.606;2024-02-15T10:58:01;100485.34;;;13.79;63.41
68656;BME280;55638;51.122;13.606;2024-02-15T10:59:37;100485.66;;;13.86;63.39
68656;BME280;55638;51.122;13.606;2024-02-15T11:01:11;100483.34;;;13.91;63.24
68656;BME280;55638;51.122;13.606;2024-02-15T11:02:53;100483.06;;;13.94;62.64
68656;BME280;55638;51.122;13.606;2024-02-15T11:04:27;100484.34;;;14.00;63.10
68656;BME280;55638;51.122;13.606;2024-02-15T11:06:05;100483.06;;;14.04;63.46
68656;BME280;55638;51.122;13.606;2024-02-15T11:07:39;100472.78;;;14.07;63.90
68656;BME280;55638;51.122;13.606;2024-02-15T11:09:12;100476.78;;;14.13;63.54
68656;BME280;55638;51.122;13.606;2024-02-15T11:10:45;100469.66;;;14.22;64.09
68656;BME280;55638;51.122;13.606;2024-02-15T11:12:19;100468.22;;;14.27;64.06
68656;BME280;55638;51.122;13.606;2024-02-15T11:14:24;100464.59;;;14.36;63.11
68656;BME280;55638;51.122;13.606;2024-02-15T11:15:56;100462.13;;;14.53;65.11
68656;BME280;55638;51.122;13.606;2024-02-15T11:21:03;100467.41;;;15.01;64.29
68656;BME280;55638;51.122;13.606;2024-02-15T11:22:36;100463.19;;;15.17;63.88
68656;BME280;55638;51.122;13.606;2024-02-15T11:24:27;100472.53;;;15.32;62.03
68656;BME280;55638;51.122;13.606;2024-02-15T11:26:00;100470.00;;;15.48;62.58
68656;BME280;55638;51.122;13.606;2024-02-15T11:27:32;100473.53;;;15.59;61.93
68656;BME280;55638;51.122;13.606;2024-02-15T11:29:04;100466.03;;;15.70;61.92
68656;BME280;55638;51.122;13.606;2024-02-15T11:30:37;100466.94;;;15.79;61.61
68656;BME280;55638;51.122;13.606;2024-02-15T11:32:36;100469.56;;;15.89;58.78
68656;BME280;55638;51.122;13.606;2024-02-15T11:34:43;100466.75;;;15.98;60.51
68656;BME280;55638;51.122;13.606;2024-02-15T11:36:16;100457.84;;;16.06;60.40
68656;BME280;55638;51.122;13.606;2024-02-15T11:39:40;100455.56;;;16.19;58.80
68656;BME280;55638;51.122;13.606;2024-02-15T11:41:18;100445.03;;;16.24;56.97
68656;BME280;55638;51.122;13.606;2024-02-15T11:42:51;100443.03;;;16.27;59.10
68656;BME280;55638;51.122;13.606;2024-02-15T11:44:25;100449.19;;;16.29;58.76
68656;BME280;55638;51.122;13.606;2024-02-15T11:46:00;100450.69;;;16.31;57.73
68656;BME280;55638;51.122;13.606;2024-02-15T11:47:33;100449.00;;;16.30;58.12
68656;BME280;55638;51.122;13.606;2024-02-15T11:49:14;100445.25;;;16.31;57.15
68656;BME280;55638;51.122;13.606;2024-02-15T11:50:51;100445.56;;;16.28;58.17
68656;BME280;55638;51.122;13.606;2024-02-15T11:52:23;100450.16;;;16.28;58.13
68656;BME280;55638;51.122;13.606;2024-02-15T11:54:13;100446.22;;;16.22;57.41
68656;BME280;55638;51.122;13.606;2024-02-15T11:55:45;100450.78;;;16.21;57.86
68656;BME280;55638;51.122;13.606;2024-02-15T11:57:18;100450.25;;;16.18;57.51
68656;BME280;55638;51.122;13.606;2024-02-15T11:59:08;100450.56;;;16.15;57.55
68656;BME280;55638;51.122;13.606;2024-02-15T12:00:39;100442.91;;;16.10;57.57
68656;BME280;55638;51.122;13.606;2024-02-15T12:02:32;100454.09;;;16.07;57.17
68656;BME280;55638;51.122;13.606;2024-02-15T12:04:23;100444.69;;;16.01;57.79
68656;BME280;55638;51.122;13.606;2024-02-15T12:06:17;100442.47;;;15.97;57.15
68656;BME280;55638;51.122;13.606;2024-02-15T12:08:10;100445.63;;;15.92;57.64
68656;BME280;55638;51.122;13.606;2024-02-15T12:10:00;100445.09;;;15.89;58.04
68656;BME280;55638;51.122;13.606;2024-02-15T12:11:58;100439.13;;;15.85;57.84
68656;BME280;55638;51.122;13.606;2024-02-15T12:13:52;100442.88;;;15.84;57.62
68656;BME280;55638;51.122;13.606;2024-02-15T12:15:56;100443.19;;;15.81;57.37
68656;BME280;55638;51.122;13.606;2024-02-15T12:17:46;100447.75;;;15.81;58.18
68656;BME280;55638;51.122;13.606;2024-02-15T12:19:37;100446.91;;;15.80;58.37
68656;BME280;55638;51.122;13.606;2024-02-15T12:21:09;100446.03;;;15.80;58.11
68656;BME280;55638;51.122;13.606;2024-02-15T12:22:47;100443.19;;;15.81;57.87
68656;BME280;55638;51.122;13.606;2024-02-15T12:24:20;100443.31;;;15.80;58.41
68656;BME280;55638;51.122;13.606;2024-02-15T12:25:57;100444.03;;;15.82;58.28
68656;BME280;55638;51.122;13.606;2024-02-15T12:27:29;100443.00;;;15.83;58.29
68656;BME280;55638;51.122;13.606;2024-02-15T12:29:02;100440.28;;;15.83;57.93
68656;BME280;55638;51.122;13.606;2024-02-15T12:30:34;100436.72;;;15.82;57.56
68656;BME280;55638;51.122;13.606;2024-02-15T12:32:19;100434.00;;;15.82;56.04
68656;BME280;55638;51.122;13.606;2024-02-15T12:34:05;100439.75;;;15.79;56.92
68656;BME280;55638;51.122;13.606;2024-02-15T12:35:39;100437.75;;;15.81;57.68
68656;BME280;55638;51.122;13.606;2024-02-15T12:37:11;100436.03;;;15.80;58.15
68656;BME280;55638;51.122;13.606;2024-02-15T12:38:43;100429.72;;;15.80;58.08
68656;BME280;55638;51.122;13.606;2024-02-15T12:40:17;100437.88;;;15.80;57.68
68656;BME280;55638;51.122;13.606;2024-02-15T12:41:49;100435.34;;;15.78;57.64
68656;BME280;55638;51.122;13.606;2024-02-15T12:43:24;100437.03;;;15.79;57.90
68656;BME280;55638;51.122;13.606;2024-02-15T12:44:58;100437.03;;;15.79;57.73
68656;BME280;55638;51.122;13.606;2024-02-15T12:46:30;100435.34;;;15.78;57.49
68656;BME280;55638;51.122;13.606;2024-02-15T12:48:06;100434.31;;;15.79;57.40
68656;BME280;55638;51.122;13.606;2024-02-15T12:49:39;100426.34;;;15.77;57.79
68656;BME280;55638;51.122;13.606;2024-02-15T12:51:16;100433.47;;;15.78;56.61
68656;BME280;55638;51.122;13.606;2024-02-15T12:52:49;100422.91;;;15.75;57.15
68656;BME280;55638;51.122;13.606;2024-02-15T12:54:22;100425.78;;;15.74;57.14
68656;BME280;55638;51.122;13.606;2024-02-15T12:55:55;100424.22;;;15.71;57.38
68656;BME280;55638;51.122;13.606;2024-02-15T12:57:27;100420.66;;;15.71;57.40
68656;BME280;55638;51.122;13.606;2024-02-15T12:58:59;100416.38;;;15.68;57.47
68656;BME280;55638;51.122;13.606;2024-02-15T13:00:32;100420.66;;;15.71;57.80
68656;BME280;55638;51.122;13.606;2024-02-15T13:02:05;100418.63;;;15.73;58.15
68656;BME280;55638;51.122;13.606;2024-02-15T13:03:37;100422.91;;;15.75;57.80
68656;BME280;55638;51.122;13.606;2024-02-15T13:05:09;100414.59;;;15.77;57.53
68656;BME280;55638;51.122;13.606;2024-02-15T13:06:41;100421.75;;;15.78;57.16
68656;BME280;55638;51.122;13.606;2024-02-15T13:08:14;100412.25;;;15.82;57.28
68656;BME280;55638;51.122;13.606;2024-02-15T13:09:46;100405.13;;;15.81;56.91
68656;BME280;55638;51.122;13.606;2024-02-15T13:11:22;100413.09;;;15.83;57.23
68656;BME280;55638;51.122;13.606;2024-02-15T13:12:58;100410.25;;;15.84;57.15
68656;BME280;55638;51.122;13.606;2024-02-15T13:14:29;100401.91;;;15.86;57.50
68656;BME280;55638;51.122;13.606;2024-02-15T13:16:01;100407.88;;;15.89;57.60
68656;BME280;55638;51.122;13.606;2024-02-15T13:17:34;100405.75;;;15.93;58.14
68656;BME280;55638;51.122;13.606;2024-02-15T13:19:06;100403.25;;;15.99;58.09
68656;BME280;55638;51.122;13.606;2024-02-15T13:20:39;100398.88;;;16.07;57.95
68656;BME280;55638;51.122;13.606;2024-02-15T13:22:11;100399.94;;;16.14;57.41
68656;BME280;55638;51.122;13.606;2024-02-15T13:23:43;100406.44;;;16.21;57.39
68656;BME280;55638;51.122;13.606;2024-02-15T13:25:15;100396.59;;;16.28;56.86
68656;BME280;55638;51.122;13.606;2024-02-15T13:26:52;100401.31;;;16.36;57.04
68656;BME280;55638;51.122;13.606;2024-02-15T13:28:27;100399.78;;;16.41;56.83
68656;BME280;55638;51.122;13.606;2024-02-15T13:30:00;100400.16;;;16.46;56.30
68656;BME280;55638;51.122;13.606;2024-02-15T13:31:32;100406.00;;;16.52;56.87
68656;BME280;55638;51.122;13.606;2024-02-15T13:33:06;100405.31;;;16.58;56.82
68656;BME280;55638;51.122;13.606;2024-02-15T13:34:38;100407.38;;;16.64;56.67
68656;BME280;55638;51.122;13.606;2024-02-15T13:36:12;100407.59;;;16.70;56.26
68656;BME280;55638;51.122;13.606;2024-02-15T13:37:51;100407.78;;;16.77;55.05
68656;BME280;55638;51.122;13.606;2024-02-15T13:39:27;100398.31;;;16.81;56.15
68656;BME280;55638;51.122;13.606;2024-02-15T13:41:04;100401.38;;;16.86;55.93
68656;BME280;55638;51.122;13.606;2024-02-15T13:42:37;100406.16;;;16.92;55.85
68656;BME280;55638;51.122;13.606;2024-02-15T13:44:09;100403.09;;;16.96;55.65
68656;BME280;55638;51.122;13.606;2024-02-15T13:45:43;100402.63;;;17.00;55.71
68656;BME280;55638;51.122;13.606;2024-02-15T13:47:16;100395.97;;;17.03;55.59
68656;BME280;55638;51.122;13.606;2024-02-15T13:48:48;100402.81;;;17.07;55.37
68656;BME280;55638;51.122;13.606;2024-02-15T13:50:20;100398.75;;;17.11;55.40
68656;BME280;55638;51.122;13.606;2024-02-15T13:51:52;100391.94;;;17.15;55.01
68656;BME280;55638;51.122;13.606;2024-02-15T13:53:24;100394.34;;;17.18;54.75
68656;BME280;55638;51.122;13.606;2024-02-15T13:54:57;100386.88;;;17.20;54.94
68656;BME280;55638;51.122;13.606;2024-02-15T13:56:28;100385.53;;;17.24;54.83
68656;BME280;55638;51.122;13.606;2024-02-15T13:58:00;100389.78;;;17.27;54.64
68656;BME280;55638;51.122;13.606;2024-02-15T13:59:33;100385.84;;;17.29;54.61
68656;BME280;55638;51.122;13.606;2024-02-15T14:01:06;100383.81;;;17.31;54.65
68656;BME280;55638;51.122;13.606;2024-02-15T14:02:41;100386.22;;;17.34;54.41
68656;BME280;55638;51.122;13.606;2024-02-15T14:04:15;100382.31;;;17.37;54.43
68656;BME280;55638;51.122;13.606;2024-02-15T14:05:48;100381.13;;;17.39;54.46
68656;BME280;55638;51.122;13.606;2024-02-15T14:07:21;100381.97;;;17.40;54.11
68656;BME280;55638;51.122;13.606;2024-02-15T14:08:53;100375.50;;;17.41;53.83
68656;BME280;55638;51.122;13.606;2024-02-15T14:10:29;100380.78;;;17.43;53.24
68656;BME280;55638;51.122;13.606;2024-02-15T14:12:01;100365.44;;;17.42;53.48
68656;BME280;55638;51.122;13.606;2024-02-15T14:13:37;100369.19;;;17.40;53.67
68656;BME280;55638;51.122;13.606;2024-02-15T14:15:09;100366.47;;;17.40;53.31
68656;BME280;55638;51.122;13.606;2024-02-15T14:16:41;100366.63;;;17.39;53.07
68656;BME280;55638;51.122;13.606;2024-02-15T14:18:14;100370.56;;;17.36;52.68
68656;BME280;55638;51.122;13.606;2024-02-15T14:19:47;100377.19;;;17.34;52.81
68656;BME280;55638;51.122;13.606;2024-02-15T14:21:19;100372.94;;;17.31;53.23
68656;BME280;55638;51.122;13.606;2024-02-15T14:22:51;100376.00;;;17.28;52.83
68656;BME280;55638;51.122;13.606;2024-02-15T14:24:29;100373.44;;;17.27;52.78
68656;BME280;55638;51.122;13.606;2024-02-15T14:26:01;100376.84;;;17.21;52.65
68656;BME280;55638;51.122;13.606;2024-02-15T14:27:34;100374.59;;;17.16;52.87
68656;BME280;55638;51.122;13.606;2024-02-15T14:29:05;100375.78;;;17.13;52.94
68656;BME280;55638;51.122;13.606;2024-02-15T14:30:39;100374.38;;;17.09;52.29
68656;BME280;55638;51.122;13.606;2024-02-15T14:32:30;100374.19;;;17.03;52.50
68656;BME280;55638;51.122;13.606;2024-02-15T14:34:21;100369.41;;;16.97;52.91
68656;BME280;55638;51.122;13.606;2024-02-15T14:35:53;100376.38;;;16.91;52.81
68656;BME280;55638;51.122;13.606;2024-02-15T14:37:25;100378.59;;;16.87;52.50
68656;BME280;55638;51.122;13.606;2024-02-15T14:38:57;100375.66;;;16.81;52.80
68656;BME280;55638;51.122;13.606;2024-02-15T14:40:29;100374.28;;;16.77;52.88
68656;BME280;55638;51.122;13.606;2024-02-15T14:42:16;100370.69;;;16.68;52.71
68656;BME280;55638;51.122;13.606;2024-02-15T14:43:49;100360.28;;;16.63;52.65
68656;BME280;55638;51.122;13.606;2024-02-15T14:45:22;100363.50;;;16.59;52.70
68656;BME280;55638;51.122;13.606;2024-02-15T14:46:54;100365.84;;;16.54;52.98
68656;BME280;55638;51.122;13.606;2024-02-15T14:48:26;100367.19;;;16.50;52.71
68656;BME280;55638;51.122;13.606;2024-02-15T14:49:59;100365.13;;;16.43;52.47
68656;BME280;55638;51.122;13.606;2024-02-15T14:51:31;100364.06;;;16.36;52.75
68656;BME280;55638;51.122;13.606;2024-02-15T14:53:04;100359.94;;;16.32;52.80
68656;BME280;55638;51.122;13.606;2024-02-15T14:54:36;100365.00;;;16.27;52.55
68656;BME280;55638;51.122;13.606;2024-02-15T14:56:08;100356.63;;;16.20;52.86
68656;BME280;55638;51.122;13.606;2024-02-15T14:57:40;100368.16;;;16.14;52.73
68656;BME280;55638;51.122;13.606;2024-02-15T14:59:12;100364.19;;;16.09;52.98
68656;BME280;55638;51.122;13.606;2024-02-15T15:00:45;100357.56;;;16.03;52.99
68656;BME280;55638;51.122;13.606;2024-02-15T15:02:19;100362.59;;;15.98;53.00
68656;BME280;55638;51.122;13.606;2024-02-15T15:03:55;100359.53;;;15.93;52.32
68656;BME280;55638;51.122;13.606;2024-02-15T15:05:27;100354.72;;;15.87;53.31
68656;BME280;55638;51.122;13.606;2024-02-15T15:07:18;100356.19;;;15.81;53.76
68656;BME280;55638;51.122;13.606;2024-02-15T15:09:08;100353.09;;;15.76;53.67
68656;BME280;55638;51.122;13.606;2024-02-15T15:10:59;100367.16;;;15.71;53.88
68656;BME280;55638;51.122;13.606;2024-02-15T15:12:49;100360.88;;;15.71;53.89
68656;BME280;55638;51.122;13.606;2024-02-15T15:14:21;100358.63;;;15.66;54.08
68656;BME280;55638;51.122;13.606;2024-02-15T15:15:53;100362.34;;;15.65;54.08
68656;BME280;55638;51.122;13.606;2024-02-15T15:17:25;100360.66;;;15.64;54.26
68656;BME280;55638;51.122;13.606;2024-02-15T15:18:58;100354.38;;;15.64;53.95
68656;BME280;55638;51.122;13.606;2024-02-15T15:20:30;100365.38;;;15.62;54.10
68656;BME280;55638;51.122;13.606;2024-02-15T15:22:04;100361.97;;;15.60;54.13
68656;BME280;55638;51.122;13.606;2024-02-15T15:23:37;100358.41;;;15.60;54.23
68656;BME280;55638;51.122;13.606;2024-02-15T15:25:09;100360.44;;;15.58;54.25
68656;BME280;55638;51.122;13.606;2024-02-15T15:26:41;100361.41;;;15.57;54.30
68656;BME280;55638;51.122;13.606;2024-02-15T15:28:13;100352.59;;;15.54;54.37
68656;BME280;55638;51.122;13.606;2024-02-15T15:29:45;100351.03;;;15.52;54.40
68656;BME280;55638;51.122;13.606;2024-02-15T15:31:17;100353.00;;;15.50;54.21
68656;BME280;55638;51.122;13.606;2024-02-15T15:32:52;100343.34;;;15.47;54.23
68656;BME280;55638;51.122;13.606;2024-02-15T15:34:24;100347.53;;;15.42;54.14
68656;BME280;55638;51.122;13.606;2024-02-15T15:35:57;100346.13;;;15.38;54.13
68656;BME280;55638;51.122;13.606;2024-02-15T15:37:29;100355.56;;;15.34;54.10
68656;BME280;55638;51.122;13.606;2024-02-15T15:39:01;100356.06;;;15.29;54.08
68656;BME280;55638;51.122;13.606;2024-02-15T15:40:40;100358.38;;;15.24;53.99
68656;BME280;55638;51.122;13.606;2024-02-15T15:42:13;100349.00;;;15.18;54.26
68656;BME280;55638;51.122;13.606;2024-02-15T15:43:45;100346.72;;;15.14;54.49
68656;BME280;55638;51.122;13.606;2024-02-15T15:45:18;100344.63;;;15.07;54.36
68656;BME280;55638;51.122;13.606;2024-02-15T15:46:50;100338.81;;;15.02;54.11
68656;BME280;55638;51.122;13.606;2024-02-15T15:48:26;100345.72;;;14.97;54.33
68656;BME280;55638;51.122;13.606;2024-02-15T15:49:58;100339.03;;;14.91;54.35
68656;BME280;55638;51.122;13.606;2024-02-15T15:51:30;100338.78;;;14.84;54.38
68656;BME280;55638;51.122;13.606;2024-02-15T15:53:05;100344.69;;;14.80;54.25
68656;BME280;55638;51.122;13.606;2024-02-15T15:54:40;100344.28;;;14.75;54.45
68656;BME280;55638;51.122;13.606;2024-02-15T15:56:14;100336.06;;;14.67;54.76
68656;BME280;55638;51.122;13.606;2024-02-15T15:57:46;100336.63;;;14.60;54.59
68656;BME280;55638;51.122;13.606;2024-02-15T15:59:18;100341.63;;;14.55;54.75
68656;BME280;55638;51.122;13.606;2024-02-15T16:00:50;100338.53;;;14.50;54.85
68656;BME280;55638;51.122;13.606;2024-02-15T16:02:22;100339.13;;;14.44;54.83
68656;BME280;55638;51.122;13.606;2024-02-15T16:03:54;100338.03;;;14.37;54.96
68656;BME280;55638;51.122;13.606;2024-02-15T16:05:26;100335.91;;;14.31;55.07
68656;BME280;55638;51.122;13.606;2024-02-15T16:06:58;100344.63;;;14.25;55.18
68656;BME280;55638;51.122;13.606;2024-02-15T16:08:31;100339.81;;;14.19;54.95
68656;BME280;55638;51.122;13.606;2024-02-15T16:10:03;100340.38;;;14.12;55.16
68656;BME280;55638;51.122;13.606;2024-02-15T16:11:35;100329.41;;;14.04;55.01
68656;BME280;55638;51.122;13.606;2024-02-15T16:13:07;100339.13;;;13.97;55.07
68656;BME280;55638;51.122;13.606;2024-02-15T16:14:40;100337.16;;;13.89;55.17
68656;BME280;55638;51.122;13.606;2024-02-15T16:16:12;100345.03;;;13.83;55.00
68656;BME280;55638;51.122;13.606;2024-02-15T16:17:44;100341.31;;;13.74;55.26
68656;BME280;55638;51.122;13.606;2024-02-15T16:19:17;100340.19;;;13.67;55.28
68656;BME280;55638;51.122;13.606;2024-02-15T16:20:49;100353.56;;;13.59;55.27
68656;BME280;55638;51.122;13.606;2024-02-15T16:22:25;100344.47;;;13.50;55.44
68656;BME280;55638;51.122;13.606;2024-02-15T16:23:56;100349.91;;;13.40;55.78
68656;BME280;55638;51.122;13.606;2024-02-15T16:25:28;100347.03;;;13.32;55.79
68656;BME280;55638;51.122;13.606;2024-02-15T16:27:00;100356.00;;;13.23;55.81
68656;BME280;55638;51.122;13.606;2024-02-15T16:28:38;100358.41;;;13.16;56.05
68656;BME280;55638;51.122;13.606;2024-02-15T16:30:17;100351.16;;;13.07;56.36
68656;BME280;55638;51.122;13.606;2024-02-15T16:31:49;100359.84;;;13.01;56.55
68656;BME280;55638;51.122;13.606;2024-02-15T16:33:21;100351.56;;;12.93;56.82
68656;BME280;55638;51.122;13.606;2024-02-15T16:34:54;100347.53;;;12.87;56.81
68656;BME280;55638;51.122;13.606;2024-02-15T16:36:31;100348.25;;;12.80;56.94
68656;BME280;55638;51.122;13.606;2024-02-15T16:38:03;100356.03;;;12.73;57.09
68656;BME280;55638;51.122;13.606;2024-02-15T16:39:36;100350.31;;;12.66;57.26
68656;BME280;55638;51.122;13.606;2024-02-15T16:41:08;100348.03;;;12.62;57.45
68656;BME280;55638;51.122;13.606;2024-02-15T16:42:41;100351.28;;;12.56;57.52
68656;BME280;55638;51.122;13.606;2024-02-15T16:44:15;100346.28;;;12.51;57.63
68656;BME280;55638;51.122;13.606;2024-02-15T16:45:47;100360.22;;;12.46;57.46
68656;BME280;55638;51.122;13.606;2024-02-15T16:47:19;100353.38;;;12.42;58.01
68656;BME280;55638;51.122;13.606;2024-02-15T16:48:52;100355.63;;;12.37;57.94
68656;BME280;55638;51.122;13.606;2024-02-15T16:50:26;100354.19;;;12.33;58.12
68656;BME280;55638;51.122;13.606;2024-02-15T16:51:58;100354.72;;;12.27;58.25
68656;BME280;55638;51.122;13.606;2024-02-15T16:53:30;100351.56;;;12.22;58.38
68656;BME280;55638;51.122;13.606;2024-02-15T16:55:04;100355.16;;;12.22;58.33
68656;BME280;55638;51.122;13.606;2024-02-15T16:56:37;100351.13;;;12.17;58.54
68656;BME280;55638;51.122;13.606;2024-02-15T16:58:10;100355.69;;;12.16;58.65
68656;BME280;55638;51.122;13.606;2024-02-15T16:59:42;100348.13;;;12.10;58.69
68656;BME280;55638;51.122;13.606;2024-02-15T17:01:13;100350.94;;;12.09;58.70
68656;BME280;55638;51.122;13.606;2024-02-15T17:02:45;100354.03;;;12.04;58.87
68656;BME280;55638;51.122;13.606;2024-02-15T17:04:18;100343.50;;;12.01;58.91
68656;BME280;55638;51.122;13.606;2024-02-15T17:05:49;100352.72;;;11.98;58.89
68656;BME280;55638;51.122;13.606;2024-02-15T17:07:21;100346.75;;;11.95;59.03
68656;BME280;55638;51.122;13.606;2024-02-15T17:08:53;100346.16;;;11.91;59.09
68656;BME280;55638;51.122;13.606;2024-02-15T17:10:27;100344.56;;;11.89;59.17
68656;BME280;55638;51.122;13.606;2024-02-15T17:12:00;100343.97;;;11.85;59.10
68656;BME280;55638;51.122;13.606;2024-02-15T17:13:33;100343.25;;;11.83;59.39
68656;BME280;55638;51.122;13.606;2024-02-15T17:15:08;100335.56;;;11.78;59.25
68656;BME280;55638;51.122;13.606;2024-02-15T17:16:43;100342.31;;;11.73;59.46
68656;BME280;55638;51.122;13.606;2024-02-15T17:18:15;100348.09;;;11.68;59.54
68656;BME280;55638;51.122;13.606;2024-02-15T17:19:56;100352.78;;;11.66;59.45
68656;BME280;55638;51.122;13.606;2024-02-15T17:21:28;100349.47;;;11.63;59.62
68656;BME280;55638;51.122;13.606;2024-02-15T17:23:01;100355.03;;;11.61;59.67
